createdAt,value
2019-05-20T00:04:43.743Z,10.45
2019-05-20T00:10:28.179Z,10.78
2019-05-20T00:16:12.350Z,10.70
2019-05-20T00:21:56.668Z,9.18
2019-05-20T00:24:26.035Z,7.92
2019-05-20T00:30:23.069Z,8.53
2019-05-20T00:36:07.208Z,7.95
2019-05-20T00:38:35.495Z,7.58
2019-05-20T00:44:08.243Z,7.95
2019-05-20T00:46:36.501Z,8.65
2019-05-20T00:49:04.749Z,6.28
2019-05-20T00:54:50.252Z,8.15
2019-05-20T01:00:34.167Z,8.68
2019-05-20T01:03:02.717Z,7.10
2019-05-20T01:05:31.104Z,7.90
2019-05-20T01:11:14.939Z,7.28
2019-05-20T01:16:59.430Z,7.08
2019-05-20T01:22:43.919Z,7.20
2019-05-20T01:28:16.861Z,7.40
2019-05-20T01:34:01.169Z,8.05
2019-05-20T01:39:45.722Z,7.08
2019-05-20T01:42:14.101Z,6.92
2019-05-20T01:47:58.400Z,6.47
2019-05-20T01:50:26.681Z,6.70
2019-05-20T01:56:10.239Z,6.72
2019-05-20T01:58:39.726Z,6.58
2019-05-20T02:01:08.456Z,7.20
2019-05-20T02:06:52.170Z,6.75
2019-05-20T02:09:20.597Z,6.72
2019-05-20T02:15:08.342Z,7.47
2019-05-20T02:20:55.034Z,6.53
2019-05-20T02:26:27.280Z,6.70
2019-05-20T02:28:55.668Z,7.35
2019-05-20T02:34:39.659Z,8.48
2019-05-20T02:37:07.917Z,8.65
2019-05-20T02:42:51.867Z,6.80
2019-05-20T02:48:36.665Z,8.25
2019-05-20T02:51:04.988Z,8.40
2019-05-20T02:56:49.109Z,8.73
2019-05-20T02:59:17.328Z,7.87
2019-05-20T03:05:07.290Z,6.95
2019-05-20T03:10:52.053Z,8.33
2019-05-20T03:16:37.390Z,7.25
2019-05-20T03:22:20.794Z,7.37
2019-05-20T03:24:49.130Z,6.83
2019-05-20T03:27:17.367Z,6.85
2019-05-20T03:32:50.276Z,7.03
2019-05-20T03:38:34.568Z,7.12
2019-05-20T03:44:18.866Z,7.67
2019-05-20T03:46:47.097Z,9.05
2019-05-20T03:52:19.710Z,7.60
2019-05-20T03:58:03.996Z,7.10
2019-05-20T04:00:33.711Z,12.18
2019-05-20T04:03:02.049Z,16.57
2019-05-20T04:05:30.413Z,11.83
2019-05-20T04:11:15.004Z,13.35
2019-05-20T04:17:00.256Z,13.58
2019-05-20T04:22:44.346Z,47.90
2019-05-20T04:25:12.648Z,10.30
2019-05-20T04:27:41.088Z,14.10
2019-05-20T04:30:09.474Z,17.60
2019-05-20T04:32:37.832Z,24.20
2019-05-20T04:35:21.380Z,116.28
2019-05-20T04:37:36.204Z,16.23
2019-05-20T04:40:05.727Z,73.20
2019-05-20T04:42:34.223Z,7.10
2019-05-20T04:45:02.431Z,7.20
2019-05-20T04:47:32.719Z,6.45
2019-05-20T04:50:01.028Z,6.97
2019-05-20T04:52:29.265Z,7.45
2019-05-20T04:54:57.436Z,7.55
2019-05-20T04:57:25.870Z,7.10
2019-05-20T04:59:54.181Z,8.20
2019-05-20T05:02:22.417Z,7.47
2019-05-20T05:04:50.508Z,9.40
2019-05-20T05:07:18.726Z,9.58
2019-05-20T05:09:48.023Z,9.25
2019-05-20T05:12:17.308Z,10.58
2019-05-20T05:14:45.762Z,7.87
2019-05-20T05:17:13.975Z,7.80
2019-05-20T05:19:42.237Z,7.97
2019-05-20T05:22:10.501Z,11.22
2019-05-20T05:24:38.963Z,9.95
2019-05-20T05:27:07.381Z,10.15
2019-05-20T05:29:35.672Z,7.08
2019-05-20T05:32:03.849Z,7.40
2019-05-20T05:34:32.187Z,6.22
2019-05-20T05:37:00.366Z,7.30
2019-05-20T05:39:28.571Z,6.85
2019-05-20T05:41:56.909Z,10.70
2019-05-20T05:44:25.099Z,10.30
2019-05-20T05:46:53.383Z,10.25
2019-05-20T05:49:21.619Z,12.15
2019-05-20T05:51:49.961Z,12.73
2019-05-20T05:54:18.183Z,14.43
2019-05-20T05:56:46.697Z,14.58
2019-05-20T05:59:15.161Z,16.77
2019-05-20T06:01:43.320Z,11.57
2019-05-20T06:04:11.585Z,5.60
2019-05-20T06:06:39.749Z,7.53
2019-05-20T06:09:08.282Z,13.25
2019-05-20T06:11:36.568Z,20.32
2019-05-20T06:14:04.891Z,10.05
2019-05-20T06:16:36.926Z,5.58
2019-05-20T06:19:03.188Z,13.72
2019-05-20T06:21:31.534Z,9.33
2019-05-20T06:24:00.006Z,9.73
2019-05-20T06:26:28.363Z,10.25
2019-05-20T06:28:56.624Z,11.60
2019-05-20T06:31:24.941Z,11.10
2019-05-20T06:33:53.289Z,11.03
2019-05-20T06:36:27.064Z,10.03
2019-05-20T06:38:53.124Z,6.47
2019-05-20T06:41:21.861Z,8.70
2019-05-20T06:47:05.455Z,17.87
2019-05-20T06:49:34.028Z,10.20
2019-05-20T06:55:07.914Z,7.15
2019-05-20T06:57:36.366Z,13.53
2019-05-20T07:00:07.441Z,13.10
2019-05-20T07:02:35.968Z,11.00
2019-05-20T07:05:05.696Z,117.65
2019-05-20T07:07:33.961Z,14.53
2019-05-20T07:10:02.297Z,7.85
2019-05-20T07:12:40.709Z,8.13
2019-05-20T07:15:00.861Z,10.68
2019-05-20T07:17:30.766Z,15.95
2019-05-20T07:19:59.356Z,13.90
2019-05-20T07:22:27.713Z,55.50
2019-05-20T07:24:55.990Z,16.12
2019-05-20T07:27:24.305Z,13.45
2019-05-20T07:29:52.654Z,16.35
2019-05-20T07:32:21.001Z,11.85
2019-05-20T07:34:49.412Z,13.08
2019-05-20T07:37:17.785Z,10.35
2019-05-20T07:39:46.101Z,15.48
2019-05-20T07:42:15.960Z,16.07
2019-05-20T07:44:44.193Z,15.10
2019-05-20T07:47:12.873Z,12.90
2019-05-20T07:49:41.188Z,15.95
2019-05-20T07:52:09.915Z,10.50
2019-05-20T07:54:38.360Z,14.70
2019-05-20T07:57:08.103Z,16.48
2019-05-20T07:59:37.861Z,21.20
2019-05-20T08:05:21.642Z,20.37
2019-05-20T08:07:52.423Z,25.05
2019-05-20T08:10:20.088Z,23.65
2019-05-20T08:16:04.002Z,25.62
2019-05-20T08:18:32.310Z,26.07
2019-05-20T08:21:01.230Z,19.95
2019-05-20T08:23:29.631Z,38.08
2019-05-20T08:25:58.073Z,16.80
2019-05-20T08:28:26.396Z,15.72
2019-05-20T08:30:54.774Z,81.00
2019-05-20T08:33:23.149Z,16.90
2019-05-20T08:35:51.385Z,15.95
2019-05-20T08:38:19.658Z,29.42
2019-05-20T08:40:48.883Z,184.80
2019-05-20T08:43:17.288Z,47.00
2019-05-20T08:45:45.621Z,163.28
2019-05-20T08:48:13.888Z,287.52
2019-05-20T08:50:49.113Z,77.47
2019-05-20T08:53:17.329Z,31.02
2019-05-20T08:55:45.519Z,192.47
2019-05-20T08:58:14.027Z,259.02
2019-05-20T09:00:42.315Z,190.20
2019-05-20T09:03:10.795Z,192.07
2019-05-20T09:05:39.541Z,146.47
2019-05-20T09:08:07.941Z,194.77
2019-05-20T09:10:39.496Z,163.50
2019-05-20T09:13:06.621Z,163.25
2019-05-20T09:15:35.061Z,191.15
2019-05-20T09:18:03.501Z,174.10
2019-05-20T09:20:31.924Z,189.13
2019-05-20T09:23:02.720Z,167.13
2019-05-20T09:25:32.304Z,158.18
2019-05-20T09:28:00.777Z,162.65
2019-05-20T09:30:29.090Z,157.93
2019-05-20T09:32:58.138Z,272.58
2019-05-20T09:35:26.912Z,174.57
2019-05-20T09:37:55.361Z,149.77
2019-05-20T09:40:25.209Z,189.95
2019-05-20T09:42:53.520Z,151.53
2019-05-20T09:45:21.980Z,150.25
2019-05-20T09:47:50.468Z,157.85
2019-05-20T09:50:18.869Z,146.37
2019-05-20T09:52:47.184Z,20.25
2019-05-20T09:55:15.509Z,17.85
2019-05-20T09:57:44.054Z,24.02
2019-05-20T10:00:12.468Z,154.38
2019-05-20T10:02:41.241Z,183.15
2019-05-20T10:05:09.583Z,171.57
2019-05-20T10:07:37.996Z,270.88
2019-05-20T10:10:07.492Z,15.68
2019-05-20T10:12:45.999Z,17.32
2019-05-20T10:15:06.929Z,153.60
2019-05-20T10:17:35.306Z,156.25
2019-05-20T10:20:05.150Z,155.93
2019-05-20T10:22:33.449Z,150.20
2019-05-20T10:25:01.861Z,149.42
2019-05-20T10:27:30.358Z,103.53
2019-05-20T10:29:58.829Z,146.85
2019-05-20T10:32:27.225Z,152.07
2019-05-20T10:34:55.552Z,153.53
2019-05-20T10:37:23.969Z,115.82
2019-05-20T10:39:52.350Z,49.45
2019-05-20T10:42:21.701Z,20.17
2019-05-20T10:44:51.123Z,19.60
2019-05-20T10:47:19.799Z,17.12
2019-05-20T10:49:48.109Z,16.00
2019-05-20T10:52:17.603Z,17.00
2019-05-20T10:54:46.053Z,16.62
2019-05-20T10:57:14.394Z,22.77
2019-05-20T10:59:42.782Z,24.40
2019-05-20T11:02:12.590Z,49.80
2019-05-20T11:04:40.897Z,63.63
2019-05-20T11:07:10.428Z,36.40
2019-05-20T11:09:38.791Z,154.45
2019-05-20T11:12:07.092Z,142.70
2019-05-20T11:14:35.283Z,158.87
2019-05-20T11:17:03.593Z,149.60
2019-05-20T11:19:31.940Z,150.27
2019-05-20T11:22:00.257Z,149.38
2019-05-20T11:24:28.774Z,154.95
2019-05-20T11:26:56.995Z,163.32
2019-05-20T11:29:25.251Z,161.50
2019-05-20T11:31:53.507Z,149.70
2019-05-20T11:34:21.930Z,152.87
2019-05-20T11:36:50.122Z,203.37
2019-05-20T11:39:32.471Z,161.65
2019-05-20T11:41:53.317Z,151.68
2019-05-20T11:44:18.499Z,150.27
2019-05-20T11:46:46.978Z,150.95
2019-05-20T11:49:15.336Z,149.65
2019-05-20T11:51:43.580Z,143.57
2019-05-20T11:57:27.253Z,34.83
2019-05-20T11:59:55.678Z,144.13
2019-05-20T12:02:24.063Z,126.67
2019-05-20T12:04:52.362Z,150.75
2019-05-20T12:07:20.801Z,38.85
2019-05-20T12:09:50.211Z,142.00
2019-05-20T12:12:18.908Z,33.90
2019-05-20T12:14:47.344Z,42.73
2019-05-20T12:17:16.708Z,171.57
2019-05-20T12:19:45.061Z,124.60
2019-05-20T12:22:13.388Z,68.78
2019-05-20T12:24:41.718Z,25.00
2019-05-20T12:27:09.954Z,39.58
2019-05-20T12:29:38.203Z,25.57
2019-05-20T12:32:07.469Z,14.50
2019-05-20T12:34:35.913Z,14.95
2019-05-20T12:37:04.184Z,16.70
2019-05-20T12:39:32.527Z,60.78
2019-05-20T12:42:00.935Z,26.77
2019-05-20T12:44:30.366Z,185.73
2019-05-20T12:46:58.705Z,100.15
2019-05-20T12:49:27.087Z,159.52
2019-05-20T12:51:55.580Z,142.30
2019-05-20T12:54:23.822Z,196.43
2019-05-20T12:56:52.180Z,151.00
2019-05-20T12:59:20.644Z,191.80
2019-05-20T13:01:49.145Z,192.45
2019-05-20T13:04:17.459Z,147.57
2019-05-20T13:06:46.790Z,140.37
2019-05-20T13:09:15.176Z,144.27
2019-05-20T13:11:43.547Z,12.53
2019-05-20T13:14:12.028Z,136.52
2019-05-20T13:16:41.139Z,142.93
2019-05-20T13:19:09.389Z,136.05
2019-05-20T13:21:37.936Z,131.90
2019-05-20T13:24:06.259Z,15.32
2019-05-20T13:26:34.545Z,13.88
2019-05-20T13:29:02.843Z,10.00
2019-05-20T13:31:31.217Z,26.48
2019-05-20T13:33:59.503Z,13.43
2019-05-20T13:36:28.862Z,16.30
2019-05-20T13:38:57.209Z,18.17
2019-05-20T13:41:25.579Z,143.82
2019-05-20T13:43:54.302Z,10.53
2019-05-20T13:46:22.637Z,33.00
2019-05-20T13:52:06.682Z,149.05
2019-05-20T14:57:06.956Z,147.85
2019-05-20T14:59:36.184Z,138.85
2019-05-20T15:02:04.354Z,166.92
2019-05-20T15:04:32.607Z,147.35
2019-05-20T15:07:00.947Z,142.95
2019-05-20T15:09:29.326Z,196.80
2019-05-20T15:11:59.725Z,145.95
2019-05-20T15:14:28.601Z,145.38
2019-05-20T15:16:58.754Z,170.17
2019-05-20T15:19:29.063Z,166.20
2019-05-20T15:21:57.651Z,136.30
2019-05-20T15:24:25.761Z,232.25
2019-05-20T15:26:54.040Z,156.10
2019-05-20T15:29:27.977Z,141.62
2019-05-20T15:31:52.308Z,155.48
2019-05-20T15:34:20.514Z,197.20
2019-05-20T15:36:49.306Z,149.65
2019-05-20T15:39:17.497Z,128.78
2019-05-20T15:41:45.862Z,98.35
2019-05-20T15:44:14.270Z,133.70
2019-05-20T15:46:45.110Z,141.55
2019-05-20T15:49:13.577Z,137.70
2019-05-20T15:51:41.920Z,125.58
2019-05-20T15:54:10.347Z,120.02
2019-05-20T15:56:38.613Z,141.80
2019-05-20T15:59:06.949Z,142.80
2019-05-20T16:01:35.223Z,146.93
2019-05-20T16:04:03.639Z,139.65
2019-05-20T16:06:31.910Z,142.28
2019-05-20T16:09:00.262Z,141.70
2019-05-20T16:11:28.501Z,140.50
2019-05-20T16:13:56.882Z,150.53
2019-05-20T16:16:25.254Z,142.65
2019-05-20T16:18:53.639Z,137.77
2019-05-20T16:21:21.912Z,6.25
2019-05-20T16:23:50.363Z,12.68
2019-05-20T16:26:18.684Z,26.45
2019-05-20T16:28:47.009Z,138.88
2019-05-20T16:31:15.311Z,135.80
2019-05-20T16:33:43.752Z,143.70
2019-05-20T16:36:12.962Z,151.57
2019-05-20T16:38:41.384Z,152.95
2019-05-20T16:41:09.860Z,142.45
2019-05-20T16:43:38.233Z,185.28
2019-05-20T16:46:06.583Z,5.70
2019-05-20T16:48:34.956Z,19.27
2019-05-20T16:51:03.442Z,20.45
2019-05-20T16:53:31.792Z,12.95
2019-05-20T16:56:01.846Z,5.10
2019-05-20T16:58:30.319Z,5.25
2019-05-20T17:00:59.074Z,5.72
2019-05-20T17:03:27.555Z,20.92
2019-05-20T17:05:59.074Z,35.52
2019-05-20T17:08:31.805Z,7.97
2019-05-20T17:11:00.281Z,8.85
2019-05-20T17:13:28.604Z,8.00
2019-05-20T17:15:57.042Z,12.73
2019-05-20T17:18:25.391Z,12.13
2019-05-20T17:20:53.784Z,12.95
2019-05-20T17:23:22.406Z,12.28
2019-05-20T17:25:51.211Z,15.60
2019-05-20T17:28:20.173Z,14.78
2019-05-20T17:30:48.500Z,14.43
2019-05-20T17:33:16.845Z,14.75
2019-05-20T17:35:45.118Z,13.50
2019-05-20T17:38:13.674Z,14.70
2019-05-20T17:40:42.148Z,18.50
2019-05-20T17:43:10.497Z,14.20
2019-05-20T17:45:39.038Z,12.60
2019-05-20T17:48:07.827Z,13.15
2019-05-20T17:50:36.204Z,12.10
2019-05-20T17:53:04.681Z,13.20
2019-05-20T17:55:33.218Z,12.58
2019-05-20T17:58:01.665Z,11.78
2019-05-20T18:00:31.063Z,10.28
2019-05-20T18:02:59.543Z,10.28
2019-05-20T18:05:27.996Z,9.63
2019-05-20T18:07:56.295Z,9.35
2019-05-20T18:10:28.244Z,10.05
2019-05-20T18:12:57.632Z,9.48
2019-05-20T18:15:27.075Z,9.53
2019-05-20T18:17:55.405Z,7.03
2019-05-20T18:20:23.858Z,8.75
2019-05-20T18:22:52.218Z,7.60
2019-05-20T18:25:21.648Z,7.15
2019-05-20T18:27:50.150Z,6.67
2019-05-20T18:30:18.729Z,6.47
2019-05-20T18:32:47.111Z,5.47
2019-05-20T18:35:15.882Z,5.78
2019-05-20T18:37:45.632Z,6.45
2019-05-20T18:40:17.305Z,6.45
2019-05-20T18:43:02.268Z,6.10
2019-05-20T18:45:34.144Z,6.05
2019-05-20T18:48:02.366Z,8.15
2019-05-20T18:50:30.794Z,6.58
2019-05-20T18:52:59.177Z,9.38
2019-05-20T18:55:27.506Z,10.25
2019-05-20T18:57:55.954Z,9.88
2019-05-20T19:00:25.162Z,11.10
2019-05-20T19:02:53.941Z,10.23
2019-05-20T19:05:23.654Z,10.82
2019-05-20T19:07:54.533Z,8.65
2019-05-20T19:10:23.563Z,11.10
2019-05-20T19:12:51.834Z,9.63
2019-05-20T19:15:20.380Z,9.78
2019-05-20T19:17:51.506Z,8.85
2019-05-20T19:20:23.023Z,8.28
2019-05-20T19:22:50.545Z,8.50
2019-05-20T19:25:18.874Z,11.22
2019-05-20T19:27:47.326Z,8.73
2019-05-20T19:30:15.635Z,9.30
2019-05-20T19:32:43.995Z,7.55
2019-05-20T19:35:13.027Z,7.85
2019-05-20T19:37:41.366Z,7.53
2019-05-20T19:40:10.111Z,8.23
2019-05-20T19:42:40.390Z,9.68
2019-05-20T19:45:09.061Z,9.45
2019-05-20T19:47:37.357Z,7.30
2019-05-20T19:50:06.327Z,8.90
2019-05-20T19:52:34.702Z,8.80
2019-05-20T19:55:08.947Z,9.15
2019-05-20T19:57:37.364Z,8.53
2019-05-20T20:00:08.003Z,9.23
2019-05-20T20:02:37.337Z,10.70
2019-05-20T20:05:07.045Z,9.63
2019-05-20T20:07:35.351Z,10.43
2019-05-20T20:10:04.572Z,9.68
2019-05-20T20:12:32.984Z,8.63
2019-05-20T20:15:01.405Z,9.70
2019-05-20T20:17:29.805Z,9.95
2019-05-20T20:19:58.346Z,10.38
2019-05-20T20:22:26.565Z,10.75
2019-05-20T20:24:55.026Z,10.03
2019-05-20T20:27:23.652Z,11.35
2019-05-20T20:29:51.939Z,10.15
2019-05-20T20:32:35.169Z,10.78
2019-05-20T20:34:50.306Z,11.93
2019-05-20T20:37:18.561Z,12.50
2019-05-20T20:39:46.838Z,13.40
2019-05-20T20:42:14.966Z,14.60
2019-05-20T20:44:43.183Z,16.95
2019-05-20T20:47:11.384Z,14.70
2019-05-20T20:49:39.734Z,12.95
2019-05-20T20:52:08.074Z,13.13
2019-05-20T20:54:36.545Z,13.72
2019-05-20T20:57:05.061Z,13.22
2019-05-20T20:59:33.240Z,14.50
2019-05-20T21:02:01.493Z,14.30
2019-05-20T21:04:29.718Z,15.05
2019-05-20T21:06:57.999Z,16.60
2019-05-20T21:09:26.382Z,16.25
2019-05-20T21:11:57.605Z,19.12
2019-05-20T21:14:26.110Z,16.45
2019-05-20T21:16:54.474Z,17.35
2019-05-20T21:19:23.876Z,17.65
2019-05-20T21:21:52.306Z,16.93
2019-05-20T21:24:20.557Z,16.93
2019-05-20T21:26:48.972Z,19.90
2019-05-20T21:29:19.073Z,20.00
2019-05-20T21:31:47.927Z,17.25
2019-05-20T21:34:16.281Z,19.17
2019-05-20T21:36:47.746Z,18.52
2019-05-20T21:39:14.633Z,19.50
2019-05-20T21:41:42.821Z,18.07
2019-05-20T21:44:11.108Z,19.25
2019-05-20T21:46:39.523Z,17.17
2019-05-20T21:49:08.869Z,18.55
2019-05-20T21:51:37.161Z,19.67
2019-05-20T21:54:05.555Z,18.80
2019-05-20T21:56:33.893Z,18.35
2019-05-20T21:59:02.263Z,17.17
2019-05-20T22:01:30.664Z,18.32
2019-05-20T22:04:00.669Z,19.40
2019-05-20T22:06:29.563Z,17.90
2019-05-20T22:08:57.813Z,18.20
2019-05-20T22:11:26.186Z,22.37
2019-05-20T22:13:54.394Z,15.58
2019-05-20T22:16:22.881Z,17.42
2019-05-20T22:18:51.145Z,15.43
2019-05-20T22:21:20.985Z,16.57
2019-05-20T22:23:50.953Z,15.30
2019-05-20T22:26:19.121Z,14.98
2019-05-20T22:28:47.589Z,14.33
2019-05-20T22:31:15.948Z,15.72
2019-05-20T22:33:44.154Z,16.35
2019-05-20T22:36:12.588Z,15.95
2019-05-20T22:38:40.861Z,15.48
2019-05-20T22:41:09.331Z,15.35
2019-05-20T22:43:37.621Z,14.83
2019-05-20T22:46:05.908Z,15.78
2019-05-20T22:48:34.086Z,15.63
2019-05-20T22:51:02.406Z,13.85
2019-05-20T22:53:30.729Z,15.18
2019-05-20T22:55:58.953Z,18.02
2019-05-20T22:58:27.265Z,15.98
2019-05-20T23:00:55.534Z,19.87
2019-05-20T23:03:23.911Z,23.70
2019-05-20T23:05:52.186Z,22.35
2019-05-20T23:08:20.761Z,24.67
2019-05-20T23:10:49.085Z,24.45
2019-05-20T23:13:17.275Z,26.12
2019-05-20T23:15:45.573Z,25.77
2019-05-20T23:18:14.003Z,27.07
2019-05-20T23:20:42.328Z,27.25
2019-05-20T23:23:10.754Z,28.95
2019-05-20T23:25:39.065Z,29.37
2019-05-20T23:28:07.487Z,29.72
2019-05-20T23:30:35.987Z,28.35
2019-05-20T23:33:04.266Z,30.00
2019-05-20T23:35:32.767Z,30.75
2019-05-20T23:38:01.241Z,34.25
2019-05-20T23:40:29.586Z,35.15
2019-05-20T23:42:57.866Z,33.00
2019-05-20T23:45:26.110Z,35.03
2019-05-20T23:47:54.427Z,33.28
2019-05-20T23:50:23.162Z,37.45
2019-05-20T23:52:52.565Z,32.42
2019-05-20T23:55:21.009Z,35.63
2019-05-20T23:57:49.444Z,32.55
